Airfield :
LOGIN :

Register | Disclaimer

   EN    FR    IT 

 










Legend :    VFR   Marginal VFR   IFR   Intensive IFR   Very Intensive IFR
Visi :
Ceiling :
>= 8 km
>= 3000ft
5 to 8 km
1000 to 3000 ft
1500m to 5 km
500 to 1000 ft
800 to 1500m
200 to 500 ft
< 800m
< 200 ft
Symbols :   Thunderstorms  Fog  Heavy snow  Heavy precipitations  Wind > 20 kt
SIGMETs :     Misc.  Thunderstorms  Icing  Turbulence  Mountain Waves  Volcanic Ashes






- Airport Elevation : 268 ft
- IATA code : BFS


EGAA - Belfast Aldergrove

CURRENT METAR :
  • 180620Z 10002KT CAVOK M04/M05 Q1019

EXPIRED METARs :
  • 180550Z 14003KT CAVOK M03/M03 Q1019
  • 180520Z 12002KT CAVOK M04/M04 Q1020
  • 180450Z 13002KT CAVOK M05/M05 Q1020
  • 180420Z 16003KT CAVOK M03/M03 Q1020

TAF TAF EGAA
Valid from the 18 at 06:00 until the 19 at 06:00 UTC


180501Z 1806/1906 VRB03KT 9999 FEW030
PROB30 1806/1812 0200 FG FZFG BKN000
PROB30 1812/1815 5000 BR
PROB30 1818/1824 7000
BECMG 1822/1902 14010KT



MET'MAP, your aeronautical weather chart ! - Copyright ORBIFLY December 2007 - Disclaimer

ORBIFLY MET'MAP TEAM :

Programming & Development : Alexandra Zaïnal
Concept & Development : Baudouin d'Aumeries
Co-Development & Prog : Marc-Olivier Méhu
Technical & hardware support : Manuel Goepfert

Contact : metmap@orbifly.com




SOURCES & CREDITS :

   NOAA